Time;durP1;ratioP1;P1;durP2;ratioP2;P2;SDS_P1;SDS_P2;PMS_P1;PMS_P2;Temp;Humidity;BMP_temperature;BMP_pressure;BME280_temperature;BME280_humidity;BME280_pressure;Samples;Min_cycle;Max_cycle;Signal;HPM_P1;HPM_P2
2022/03/10 00:02:24;;;;;;;7.75;3.65;;;;;;;4.20;47.63;100136.22;4261196;33;33843;-94
2022/03/10 00:04:58;;;;;;;8.55;4.43;;;;;;;4.16;47.61;100142.16;4267790;33;34538;-94
2022/03/10 00:07:30;;;;;;;6.40;3.78;;;;;;;4.11;47.68;100143.72;4255312;33;32525;-93
2022/03/10 00:10:16;;;;;;;8.48;4.60;;;;;;;4.10;48.02;100150.56;4271364;33;33586;-94
2022/03/10 00:13:04;;;;;;;6.45;3.45;;;;;;;3.84;48.75;100144.88;4265535;33;34042;-95
2022/03/10 00:15:45;;;;;;;6.57;4.35;;;;;;;3.99;48.49;100155.50;4257661;33;32998;-94
2022/03/10 00:18:14;;;;;;;8.73;4.80;;;;;;;4.00;48.47;100144.38;4241967;33;32559;-92
2022/03/10 00:20:45;;;;;;;6.68;3.70;;;;;;;4.00;48.47;100157.22;4263484;33;33834;-93
2022/03/10 00:23:20;;;;;;;8.93;4.20;;;;;;;3.82;48.54;100139.75;4253462;33;33868;-94
2022/03/10 00:25:59;;;;;;;6.15;4.00;;;;;;;3.59;49.12;100158.91;4269395;33;33469;-92
2022/03/10 00:28:28;;;;;;;5.57;3.53;;;;;;;3.91;48.36;100156.16;4269419;33;34059;-93
2022/03/10 00:31:00;;;;;;;6.82;4.20;;;;;;;3.88;48.11;100151.84;4254955;33;32593;-93
2022/03/10 00:33:33;;;;;;;6.22;3.53;;;;;;;3.91;48.21;100166.44;4268017;33;34376;-92
2022/03/10 00:36:10;;;;;;;6.12;3.55;;;;;;;4.01;47.69;100169.25;4265275;33;33218;-93
2022/03/10 00:38:40;;;;;;;6.65;4.05;;;;;;;4.11;46.93;100183.13;4261832;33;34065;-92
2022/03/10 00:41:11;;;;;;;4.28;2.53;;;;;;;4.09;46.64;100181.38;4255927;33;34736;-93
2022/03/10 00:43:41;;;;;;;6.55;3.58;;;;;;;4.13;45.57;100183.16;4270294;33;34260;-93
2022/03/10 00:46:11;;;;;;;7.22;3.95;;;;;;;3.67;47.08;100183.00;4251285;33;32568;-93
2022/03/10 00:48:40;;;;;;;6.25;4.00;;;;;;;3.02;49.06;100196.03;4254982;33;33157;-92
2022/03/10 00:51:09;;;;;;;6.15;3.45;;;;;;;3.03;49.12;100200.31;4255075;33;32905;-93
2022/03/10 00:53:38;;;;;;;7.60;4.20;;;;;;;3.22;48.84;100198.22;4247921;33;33209;-92
2022/03/10 00:56:10;;;;;;;6.87;3.30;;;;;;;2.04;52.84;100214.66;4252122;33;32231;-93
2022/03/10 00:58:39;;;;;;;7.03;4.93;;;;;;;2.74;50.97;100207.25;4264411;33;33880;-94
2022/03/10 01:01:10;;;;;;;5.57;3.65;;;;;;;2.79;50.63;100218.47;4241217;33;33538;-94
2022/03/10 01:03:40;;;;;;;9.55;4.30;;;;;;;2.93;50.12;100219.72;4243565;33;34150;-94
2022/03/10 01:06:12;;;;;;;10.63;4.35;;;;;;;2.54;50.75;100228.06;4252393;33;33296;-93
2022/03/10 01:08:41;;;;;;;6.50;4.47;;;;;;;2.83;50.23;100233.13;4264153;33;33114;-94
2022/03/10 01:11:15;;;;;;;8.38;4.53;;;;;;;3.04;49.33;100230.22;4269414;33;34896;-94
2022/03/10 01:13:44;;;;;;;6.78;4.03;;;;;;;3.02;49.10;100233.56;4246847;33;32604;-93
2022/03/10 01:16:14;;;;;;;10.40;4.55;;;;;;;3.35;47.94;100236.13;4262373;33;33104;-93
2022/03/10 01:18:43;;;;;;;6.28;5.28;;;;;;;3.25;48.09;100240.16;4253882;33;32140;-94
2022/03/10 01:21:12;;;;;;;10.90;4.45;;;;;;;3.24;48.16;100238.44;4246007;33;33865;-92
2022/03/10 01:23:41;;;;;;;10.95;4.97;;;;;;;3.22;48.31;100245.22;4269169;33;33724;-93
2022/03/10 01:26:10;;;;;;;6.65;4.00;;;;;;;3.25;48.53;100232.47;4263041;33;33485;-92
2022/03/10 01:28:40;;;;;;;6.80;4.35;;;;;;;3.11;48.75;100227.00;4267172;33;32973;-95
2022/03/10 01:31:10;;;;;;;6.30;4.00;;;;;;;3.16;49.12;100230.53;4252284;33;33813;-93
2022/03/10 01:33:39;;;;;;;7.70;4.20;;;;;;;3.15;49.44;100235.66;4252647;33;34012;-93
2022/03/10 01:36:09;;;;;;;8.63;4.75;;;;;;;3.28;49.49;100237.66;4270486;33;34219;-94
2022/03/10 01:39:39;;;;;;;7.97;4.05;;;;;;;3.29;50.00;100230.87;4261691;33;32662;-93
2022/03/10 01:42:08;;;;;;;8.73;4.18;;;;;;;3.30;50.44;100241.16;4254475;33;33240;-95
2022/03/10 01:45:42;;;;;;;5.75;3.72;;;;;;;3.13;50.98;100242.41;4260434;33;33179;-95
2022/03/10 01:48:51;;;;;;;4.70;3.40;;;;;;;3.26;50.99;100249.59;4271033;33;33229;-95
2022/03/10 01:52:44;;;;;;;6.60;4.15;;;;;;;3.46;51.51;100255.22;4272778;33;32691;-95
2022/03/10 01:55:14;;;;;;;9.07;3.95;;;;;;;3.24;52.67;100258.97;4256162;33;33368;-94
2022/03/10 01:58:20;;;;;;;6.82;3.67;;;;;;;3.22;53.06;100259.75;4257994;33;32980;-95
2022/03/10 02:00:52;;;;;;;8.43;3.92;;;;;;;3.42;52.94;100264.53;4269070;33;33570;-95
2022/03/10 02:03:22;;;;;;;8.32;5.00;;;;;;;3.41;53.22;100267.06;4258446;33;33515;-95
2022/03/10 02:05:52;;;;;;;5.72;3.37;;;;;;;3.17;54.03;100262.19;4268360;33;34468;-93
2022/03/10 02:11:49;;;;;;;6.90;3.90;;;;;;;3.52;53.96;100264.75;4264553;33;32504;-95
2022/03/10 02:17:50;;;;;;;8.75;4.90;;;;;;;3.37;54.54;100275.50;4261642;33;34780;-95
2022/03/10 02:21:08;;;;;;;6.12;4.62;;;;;;;3.48;54.38;100279.22;4256403;33;34236;-94
2022/03/10 02:24:59;;;;;;;7.55;4.28;;;;;;;3.49;54.25;100280.09;4264798;33;33865;-95
2022/03/10 02:28:09;;;;;;;7.50;4.07;;;;;;;3.54;54.29;100283.63;4248651;33;34424;-95
2022/03/10 02:31:41;;;;;;;8.52;4.57;;;;;;;3.66;54.57;100291.63;4253774;33;33930;-96
2022/03/10 03:03:53;;;;;;;7.13;3.70;;;;;;;3.89;56.08;100322.09;4262579;33;34638;-95
2022/03/10 03:07:56;;;;;;;;;;;;;;;;;;;;;
2022/03/10 03:11:49;;;;;;;8.35;4.78;;;;;;;3.97;56.20;100331.72;4235852;33;35312;-93
2022/03/10 03:15:35;;;;;;;10.20;4.28;;;;;;;3.90;56.48;100324.72;4241044;33;33953;-94
2022/03/10 03:18:24;;;;;;;5.65;3.92;;;;;;;4.14;56.04;100344.09;4237634;33;34417;-96
2022/03/10 03:21:36;;;;;;;7.50;3.72;;;;;;;4.12;56.20;100341.47;4240400;33;33644;-93
2022/03/10 03:24:07;;;;;;;7.07;4.10;;;;;;;4.05;56.32;100340.47;4234869;33;32192;-93
2022/03/10 03:27:16;;;;;;;6.43;4.35;;;;;;;4.04;56.22;100332.75;4228138;33;32632;-93
2022/03/10 03:30:27;;;;;;;7.55;4.20;;;;;;;4.16;55.74;100339.88;4238968;33;33796;-94
2022/03/10 03:34:16;;;;;;;9.18;4.70;;;;;;;4.04;55.60;100343.88;4241417;33;32501;-94
2022/03/10 03:37:26;;;;;;;7.05;3.40;;;;;;;4.33;54.58;100361.66;4234414;33;33647;-94
2022/03/10 03:39:58;;;;;;;9.15;4.35;;;;;;;4.53;53.84;100363.81;4232040;33;33459;-95
2022/03/10 03:42:32;;;;;;;7.65;4.53;;;;;;;4.18;54.77;100374.12;4221235;33;33512;-96
2022/03/10 03:45:22;;;;;;;10.07;4.18;;;;;;;4.03;54.89;100362.66;4257116;33;33102;-95
2022/03/10 03:47:52;;;;;;;6.62;3.92;;;;;;;4.27;54.53;100379.50;4251436;33;33087;-95
2022/03/10 03:50:45;;;;;;;10.60;4.20;;;;;;;4.10;55.04;100383.37;4259985;33;34169;-94
2022/03/10 03:54:00;;;;;;;5.70;4.30;;;;;;;4.27;54.47;100395.75;4257554;33;32872;-95
2022/03/10 03:57:13;;;;;;;10.15;4.82;;;;;;;4.37;54.07;100398.56;4255780;33;34351;-94
2022/03/10 04:00:22;;;;;;;7.57;3.78;;;;;;;4.30;54.22;100391.53;4259467;33;32388;-95
2022/03/10 04:04:40;;;;;;;7.68;3.97;;;;;;;4.36;53.41;100401.97;4256374;33;33538;-95
2022/03/10 04:08:09;;;;;;;5.43;3.87;;;;;;;4.24;53.08;100402.53;4272711;33;34128;-95
2022/03/10 04:11:40;;;;;;;6.07;3.47;;;;;;;4.33;52.75;100417.31;4274079;33;34204;-94
2022/03/10 04:14:29;;;;;;;7.57;4.43;;;;;;;4.34;54.05;100414.75;4256198;33;32956;-94
2022/03/10 04:18:19;;;;;;;9.57;4.37;;;;;;;4.31;55.44;100418.97;4265094;33;34266;-95
2022/03/10 04:21:28;;;;;;;7.97;4.75;;;;;;;4.03;57.60;100414.00;4272955;33;33508;-95
2022/03/10 04:24:48;;;;;;;8.25;4.68;;;;;;;4.40;56.58;100430.34;4269880;33;33842;-95
2022/03/10 04:27:42;;;;;;;6.27;3.60;;;;;;;3.91;58.56;100439.38;4278276;33;32920;-95
2022/03/10 04:31:54;;;;;;;6.12;4.03;;;;;;;4.31;57.51;100436.94;4273759;33;32477;-95
2022/03/10 04:35:56;;;;;;;9.07;3.62;;;;;;;4.41;57.80;100436.34;4252569;33;32724;-95
2022/03/10 04:38:28;;;;;;;7.75;4.25;;;;;;;4.32;58.59;100433.53;4252433;33;33398;-94
2022/03/10 04:41:40;;;;;;;6.80;3.67;;;;;;;4.24;59.11;100438.50;4269856;33;33875;-94
2022/03/10 04:45:12;;;;;;;6.37;4.53;;;;;;;4.20;59.50;100447.81;4256681;33;33972;-93
2022/03/10 04:48:41;;;;;;;7.28;4.20;;;;;;;4.36;59.15;100455.91;4256425;33;33177;-94
2022/03/10 04:51:50;;;;;;;9.75;4.60;;;;;;;3.99;60.39;100458.44;4255447;33;31823;-96
2022/03/10 04:55:18;;;;;;;7.30;4.47;;;;;;;4.31;59.33;100475.47;4260417;33;32973;-94
2022/03/10 04:58:48;;;;;;;7.15;4.40;;;;;;;4.48;58.55;100479.31;4268474;33;35855;-94
2022/03/10 05:01:58;;;;;;;6.03;3.92;;;;;;;4.44;58.20;100482.66;4259257;33;33239;-95
2022/03/10 05:05:30;;;;;;;4.50;3.67;;;;;;;4.31;57.77;100484.06;4258379;33;31848;-94
2022/03/10 05:08:39;;;;;;;6.82;4.35;;;;;;;4.49;56.42;100492.22;4262116;33;32641;-96
2022/03/10 05:12:28;;;;;;;10.10;4.32;;;;;;;4.37;56.45;100493.59;4267895;33;35079;-93
2022/03/10 05:15:57;;;;;;;5.65;3.35;;;;;;;4.37;56.15;100509.00;4265277;33;33118;-93
2022/03/10 05:19:08;;;;;;;7.43;3.50;;;;;;;4.02;56.01;100509.84;4263939;33;33692;-95
2022/03/10 05:21:59;;;;;;;6.28;3.25;;;;;;;4.43;54.36;100507.47;4252703;33;32326;-94
2022/03/10 05:24:49;;;;;;;5.30;3.27;;;;;;;4.97;52.69;100516.44;4252062;33;32531;-95
2022/03/10 05:28:38;;;;;;;4.72;3.00;;;;;;;4.36;52.47;100522.69;4259245;33;32878;-95
2022/03/10 05:32:23;;;;;;;5.75;2.97;;;;;;;4.21;50.88;100524.03;4260096;33;32942;-96
2022/03/10 05:35:15;;;;;;;3.87;2.90;;;;;;;3.54;51.60;100533.34;4264662;33;32774;-94
2022/03/10 05:38:44;;;;;;;5.22;2.25;;;;;;;3.77;50.04;100533.09;4247785;33;33000;-94
2022/03/10 05:42:34;;;;;;;4.62;2.65;;;;;;;4.22;47.73;100527.47;4263060;33;32959;-95
2022/03/10 05:46:04;;;;;;;4.95;2.70;;;;;;;3.80;48.16;100540.91;4257804;33;33436;-94
2022/03/10 05:48:53;;;;;;;5.68;2.83;;;;;;;3.13;48.74;100540.69;4257470;33;32930;-94
2022/03/10 05:51:47;;;;;;;3.55;2.80;;;;;;;3.96;46.97;100534.47;4252824;33;32894;-93
2022/03/10 05:54:36;;;;;;;2.90;2.53;;;;;;;3.09;47.72;100536.25;4260723;33;32826;-95
2022/03/10 05:57:05;;;;;;;3.87;2.10;;;;;;;2.99;48.28;100541.94;4269497;33;33318;-94
2022/03/10 05:59:34;;;;;;;2.80;2.45;;;;;;;2.82;48.37;100535.41;4266583;33;33560;-93
2022/03/10 06:02:04;;;;;;;2.95;2.40;;;;;;;3.29;47.20;100549.72;4258693;33;33993;-91
2022/03/10 06:04:33;;;;;;;4.85;2.67;;;;;;;2.56;48.38;100546.59;4263004;33;34104;-92
2022/03/10 06:07:03;;;;;;;3.10;2.33;;;;;;;2.49;48.37;100542.06;4260008;33;33197;-91
2022/03/10 06:09:33;;;;;;;3.22;2.58;;;;;;;2.94;47.58;100556.31;4260777;33;35173;-93
2022/03/10 06:12:02;;;;;;;2.83;2.17;;;;;;;2.34;48.06;100552.69;4267650;33;32410;-93
2022/03/10 06:14:31;;;;;;;3.37;2.22;;;;;;;2.53;47.65;100560.97;4244045;33;31874;-92
2022/03/10 06:17:00;;;;;;;2.58;2.05;;;;;;;3.06;46.59;100561.81;4267258;33;32525;-91
2022/03/10 06:19:29;;;;;;;3.45;2.75;;;;;;;3.10;46.32;100583.31;4261384;33;34223;-92
2022/03/10 06:21:58;;;;;;;3.10;2.22;;;;;;;3.22;45.79;100585.38;4253131;33;31583;-92
2022/03/10 06:24:28;;;;;;;2.65;2.25;;;;;;;3.55;45.48;100588.97;4267694;33;33566;-93
2022/03/10 06:26:57;;;;;;;2.22;1.87;;;;;;;3.36;45.83;100592.66;4255082;33;35912;-93
2022/03/10 06:29:26;;;;;;;3.55;2.42;;;;;;;3.56;44.81;100600.09;4260726;33;33406;-93
2022/03/10 06:31:55;;;;;;;3.67;2.30;;;;;;;2.78;46.41;100596.84;4261468;33;33531;-92
2022/03/10 06:34:23;;;;;;;5.43;2.72;;;;;;;3.17;45.88;100606.63;4263851;33;34071;-92
2022/03/10 06:36:52;;;;;;;2.87;2.22;;;;;;;2.86;46.51;100599.63;4271254;33;33509;-91
2022/03/10 06:39:21;;;;;;;3.97;2.60;;;;;;;3.01;46.40;100606.09;4263092;33;34146;-92
2022/03/10 06:41:51;;;;;;;3.62;2.28;;;;;;;3.33;45.48;100609.66;4253026;33;32127;-93
2022/03/10 06:44:20;;;;;;;3.90;2.70;;;;;;;3.09;45.76;100617.44;4258525;33;34223;-94
2022/03/10 06:46:49;;;;;;;2.37;2.17;;;;;;;3.30;45.21;100614.69;4259144;33;34112;-92
2022/03/10 06:49:17;;;;;;;2.30;2.10;;;;;;;3.02;45.57;100620.63;4257034;33;33702;-94
2022/03/10 06:51:46;;;;;;;4.40;2.40;;;;;;;3.46;44.47;100627.16;4258945;33;32841;-94
2022/03/10 06:54:18;;;;;;;2.37;1.98;;;;;;;3.40;44.34;100626.97;4267682;33;33921;-95
2022/03/10 06:56:47;;;;;;;5.47;2.70;;;;;;;3.62;43.64;100620.78;4255334;33;31798;-93
2022/03/10 06:59:17;;;;;;;3.00;2.42;;;;;;;3.22;45.11;100627.28;4263237;33;33705;-93
2022/03/10 07:01:46;;;;;;;3.90;2.37;;;;;;;3.59;44.72;100636.09;4262689;33;33754;-94
2022/03/10 07:04:15;;;;;;;2.85;2.25;;;;;;;3.65;44.67;100636.28;4249945;33;33038;-93
2022/03/10 07:06:44;;;;;;;4.12;2.97;;;;;;;3.79;44.47;100640.16;4259527;33;31854;-95
2022/03/10 07:09:18;;;;;;;3.58;2.65;;;;;;;3.32;45.63;100643.81;4259161;33;33522;-94
2022/03/10 07:11:47;;;;;;;3.15;2.33;;;;;;;3.59;44.19;100643.78;4260020;33;34720;-94
2022/03/10 07:14:18;;;;;;;3.87;2.08;;;;;;;3.16;44.84;100650.16;4260509;33;33905;-94
2022/03/10 07:16:46;;;;;;;2.37;2.03;;;;;;;3.01;44.58;100650.53;4266248;33;32422;-94
2022/03/10 07:19:15;;;;;;;2.10;1.87;;;;;;;3.38;44.03;100656.81;4262326;33;34098;-92
2022/03/10 07:21:44;;;;;;;3.60;2.75;;;;;;;3.32;44.18;100665.19;4245226;33;33168;-93
2022/03/10 07:24:13;;;;;;;2.55;2.25;;;;;;;3.29;44.52;100652.28;4258142;33;34606;-92
2022/03/10 07:26:43;;;;;;;3.95;2.53;;;;;;;3.44;44.02;100664.72;4238984;33;31930;-94
2022/03/10 07:29:12;;;;;;;3.65;2.58;;;;;;;3.60;44.24;100664.37;4268327;33;34162;-93
2022/03/10 07:31:42;;;;;;;4.40;2.42;;;;;;;3.77;44.04;100661.44;4264436;33;33848;-92
2022/03/10 07:34:11;;;;;;;2.95;2.20;;;;;;;3.72;44.14;100671.59;4247735;33;32689;-94
2022/03/10 07:36:42;;;;;;;3.35;2.33;;;;;;;3.98;43.12;100664.63;4252358;33;32631;-94
2022/03/10 07:39:11;;;;;;;4.57;2.47;;;;;;;3.35;44.72;100670.41;4255321;33;32876;-93
2022/03/10 07:41:40;;;;;;;3.90;2.65;;;;;;;3.53;44.79;100666.72;4273097;33;33993;-93
2022/03/10 07:44:09;;;;;;;3.60;2.40;;;;;;;3.68;44.72;100664.59;4255219;33;33140;-94
2022/03/10 07:46:39;;;;;;;5.68;2.50;;;;;;;3.75;44.51;100669.09;4260690;33;33211;-93
2022/03/10 07:49:09;;;;;;;4.22;2.47;;;;;;;4.36;42.89;100667.44;4265072;33;34176;-93
2022/03/10 07:51:40;;;;;;;2.35;2.08;;;;;;;4.80;41.73;100672.88;4265866;33;34049;-92
2022/03/10 07:54:09;;;;;;;2.22;2.05;;;;;;;4.41;41.84;100664.97;4261789;33;33899;-93
2022/03/10 07:56:39;;;;;;;5.30;2.78;;;;;;;4.37;42.25;100668.28;4267167;33;33207;-93
2022/03/10 07:59:08;;;;;;;3.15;2.30;;;;;;;4.73;41.55;100670.97;4247998;33;32835;-94
2022/03/10 08:01:36;;;;;;;2.85;2.15;;;;;;;4.58;41.43;100675.72;4259018;33;33639;-93
2022/03/10 08:04:09;;;;;;;;;;;;;;;4.73;41.51;100668.41;4262418;33;33370;-94
2022/03/10 08:06:38;;;;;;;3.22;2.17;;;;;;;4.44;41.70;100670.19;4258813;33;34540;-93
2022/03/10 08:09:10;;;;;;;3.73;2.30;;;;;;;4.05;42.76;100673.38;4249635;33;33897;-94
2022/03/10 08:11:39;;;;;;;3.83;2.60;;;;;;;3.82;42.66;100686.44;4245440;33;32709;-94
2022/03/10 08:14:10;;;;;;;3.42;2.83;;;;;;;3.66;42.05;100675.66;4266005;33;32556;-93
2022/03/10 08:16:40;;;;;;;4.85;2.70;;;;;;;4.01;41.82;100676.69;4250007;33;33881;-94
2022/03/10 08:19:13;;;;;;;4.15;2.45;;;;;;;4.10;41.79;100676.09;4265040;33;33981;-93
2022/03/10 08:21:42;;;;;;;4.35;2.42;;;;;;;4.59;40.82;100682.59;4254886;33;34909;-94
2022/03/10 08:24:12;;;;;;;4.37;2.85;;;;;;;5.19;39.04;100673.84;4253855;33;32517;-95
2022/03/10 08:26:42;;;;;;;3.28;2.22;;;;;;;3.82;40.78;100681.28;4255779;33;33494;-93
2022/03/10 08:29:14;;;;;;;4.75;2.62;;;;;;;3.93;40.63;100678.16;4257088;33;34173;-93
2022/03/10 08:31:43;;;;;;;3.75;2.60;;;;;;;4.25;40.27;100687.69;4252173;33;33449;-94
2022/03/10 08:34:13;;;;;;;2.30;2.10;;;;;;;3.96;40.70;100684.28;4249199;33;33123;-95
2022/03/10 08:36:42;;;;;;;2.80;2.35;;;;;;;4.47;39.85;100686.59;4254879;33;31879;-92
2022/03/10 08:39:11;;;;;;;4.10;2.70;;;;;;;4.54;40.09;100674.75;4261103;33;33832;-93
2022/03/10 08:41:39;;;;;;;3.42;2.00;;;;;;;4.95;39.04;100661.25;4248246;33;33010;-93
2022/03/10 08:44:08;;;;;;;3.22;2.47;;;;;;;4.51;39.98;100663.53;4261634;33;34560;-94
2022/03/10 08:46:37;;;;;;;5.20;2.75;;;;;;;5.07;38.62;100671.84;4265294;33;34104;-94
2022/03/10 08:49:09;;;;;;;4.05;2.67;;;;;;;4.46;40.18;100674.56;4265851;33;34341;-92
2022/03/10 08:51:40;;;;;;;3.08;2.15;;;;;;;4.03;40.56;100675.03;4250997;33;33728;-92
2022/03/10 08:54:08;;;;;;;2.15;1.95;;;;;;;4.32;40.52;100672.44;4246447;33;33291;-92
2022/03/10 08:56:37;;;;;;;2.60;2.10;;;;;;;4.51;38.95;100674.69;4263633;33;34218;-92
2022/03/10 08:59:06;;;;;;;3.33;2.10;;;;;;;5.22;37.85;100671.34;4248744;33;32500;-93
2022/03/10 09:01:35;;;;;;;3.78;2.70;;;;;;;4.87;38.17;100674.78;4245127;33;33847;-93
2022/03/10 09:04:05;;;;;;;4.50;2.30;;;;;;;5.28;37.74;100676.66;4261203;33;33785;-92
2022/03/10 09:06:34;;;;;;;3.37;2.28;;;;;;;4.79;37.54;100676.28;4257760;33;32601;-95
2022/03/10 09:09:04;;;;;;;3.33;2.35;;;;;;;4.60;34.25;100677.50;4256719;33;34095;-92
2022/03/10 09:11:34;;;;;;;2.73;2.37;;;;;;;5.16;33.46;100678.91;4255854;33;34082;-93
2022/03/10 09:14:03;;;;;;;3.40;2.40;;;;;;;5.04;33.19;100679.47;4252143;33;33288;-92
2022/03/10 09:16:32;;;;;;;2.80;2.33;;;;;;;4.77;34.21;100683.09;4254957;33;33564;-92
2022/03/10 09:19:01;;;;;;;2.95;2.30;;;;;;;4.76;34.70;100690.75;4266482;33;33794;-93
2022/03/10 09:21:30;;;;;;;3.05;2.35;;;;;;;4.55;34.42;100686.78;4267106;33;34227;-92
2022/03/10 09:23:58;;;;;;;2.95;1.95;;;;;;;4.63;33.77;100693.00;4267672;33;33381;-93
2022/03/10 09:26:29;;;;;;;2.78;2.00;;;;;;;5.27;31.49;100688.66;4266149;33;34515;-92
2022/03/10 09:28:59;;;;;;;3.05;2.30;;;;;;;4.87;32.33;100694.47;4257837;33;34929;-93
2022/03/10 09:31:31;;;;;;;3.17;2.10;;;;;;;4.40;33.05;100701.78;4265028;33;34440;-93
2022/03/10 09:34:00;;;;;;;4.55;2.37;;;;;;;5.38;32.34;100703.47;4261651;33;34626;-92
2022/03/10 09:36:29;;;;;;;3.12;2.20;;;;;;;4.94;32.95;100703.22;4251344;33;33043;-93
2022/03/10 09:38:58;;;;;;;3.58;2.95;;;;;;;5.13;32.98;100713.16;4263141;33;33217;-91
2022/03/10 09:41:28;;;;;;;3.28;2.45;;;;;;;5.71;31.94;100698.25;4264026;33;34327;-93
2022/03/10 09:43:59;;;;;;;2.90;2.47;;;;;;;5.68;32.52;100695.59;4255952;33;32290;-92
2022/03/10 09:46:28;;;;;;;3.07;2.40;;;;;;;5.69;31.36;100703.34;4253217;33;31718;-93
2022/03/10 09:48:57;;;;;;;2.50;1.92;;;;;;;5.63;32.05;100697.19;4267690;33;34563;-93
2022/03/10 09:51:28;;;;;;;3.47;2.53;;;;;;;6.04;30.90;100699.84;4265823;33;33808;-93
2022/03/10 09:54:02;;;;;;;3.60;2.20;;;;;;;5.44;31.13;100703.62;4267501;33;33282;-93
2022/03/10 09:56:36;;;;;;;4.28;2.45;;;;;;;6.00;31.00;100708.34;4266682;33;33753;-92
2022/03/10 09:59:07;;;;;;;2.53;1.87;;;;;;;5.44;31.07;100701.06;4258110;33;33392;-94
2022/03/10 10:01:36;;;;;;;;;;;;;;;5.34;31.46;100699.97;4257263;33;33946;-92
2022/03/10 10:04:06;;;;;;;3.80;2.30;;;;;;;5.52;31.36;100700.38;4262076;33;33812;-93
2022/03/10 10:07:01;;;;;;;3.33;2.17;;;;;;;5.11;31.63;100705.37;4266456;33;34036;-93
2022/03/10 10:09:40;;;;;;;3.50;2.80;;;;;;;4.80;31.25;100711.44;4255843;33;34618;-93
2022/03/10 10:12:12;;;;;;;2.70;2.35;;;;;;;4.80;31.58;100715.72;4255799;33;79550;-93
2022/03/10 10:14:42;;;;;;;2.35;2.05;;;;;;;4.61;31.82;100719.47;4259225;33;32399;-94
2022/03/10 10:17:11;;;;;;;3.08;2.35;;;;;;;5.47;30.38;100714.84;4257025;33;33755;-92
2022/03/10 10:19:41;;;;;;;2.60;2.10;;;;;;;5.97;29.59;100714.31;4253988;33;33700;-92
2022/03/10 10:22:30;;;;;;;3.17;2.17;;;;;;;6.57;28.81;100720.69;4263402;33;33606;-93
2022/03/10 10:25:02;;;;;;;3.20;2.53;;;;;;;5.34;29.96;100721.41;4266748;33;34112;-94
2022/03/10 10:27:34;;;;;;;5.72;2.12;;;;;;;5.36;29.53;100716.28;4262114;33;33211;-92
2022/03/10 10:30:06;;;;;;;5.35;2.20;;;;;;;6.18;28.54;100726.75;4267632;33;33614;-94
2022/03/10 10:32:36;;;;;;;2.92;2.37;;;;;;;6.71;27.60;100719.25;4263192;33;34710;-93
2022/03/10 10:35:10;;;;;;;3.35;2.30;;;;;;;6.78;27.63;100720.22;4247987;33;33665;-93
2022/03/10 10:37:42;;;;;;;4.80;2.05;;;;;;;6.76;26.74;100721.91;4256153;33;33407;-92
2022/03/10 10:40:12;;;;;;;1.85;1.70;;;;;;;6.11;27.88;100717.16;4263221;33;33602;-93
2022/03/10 10:42:42;;;;;;;1.95;1.65;;;;;;;5.78;28.04;100720.72;4266460;33;33797;-92
2022/03/10 10:45:28;;;;;;;2.13;1.93;;;;;;;6.80;26.11;100716.84;4266056;33;32026;-93
2022/03/10 10:48:02;;;;;;;2.90;2.33;;;;;;;6.52;26.48;100710.28;4261651;33;32948;-93
2022/03/10 10:50:34;;;;;;;2.55;1.87;;;;;;;6.24;26.36;100714.03;4260238;33;33522;-92
2022/03/10 10:53:03;;;;;;;2.00;1.70;;;;;;;6.44;26.22;100721.28;4258964;33;33509;-93
2022/03/10 10:55:34;;;;;;;1.98;1.77;;;;;;;5.83;27.37;100726.84;4247227;33;34012;-93
2022/03/10 10:58:09;;;;;;;2.05;1.73;;;;;;;6.40;26.16;100721.25;4261800;33;33271;-94
2022/03/10 11:00:43;;;;;;;2.75;1.83;;;;;;;6.96;25.87;100719.69;4261442;33;32178;-94
2022/03/10 11:03:22;;;;;;;1.70;1.60;;;;;;;6.66;26.37;100722.59;4269793;33;32322;-92
2022/03/10 11:05:52;;;;;;;3.58;3.28;;;;;;;6.40;25.83;100731.56;4261562;33;33734;-92
2022/03/10 11:08:22;;;;;;;1.77;1.55;;;;;;;6.92;25.20;100723.09;4251680;33;32524;-93
2022/03/10 11:10:51;;;;;;;1.37;1.30;;;;;;;7.31;24.90;100716.88;4262425;33;34285;-93
2022/03/10 11:13:24;;;;;;;2.05;1.70;;;;;;;7.29;24.25;100718.56;4251230;33;32438;-95
2022/03/10 11:15:53;;;;;;;2.00;1.80;;;;;;;7.29;24.46;100713.38;4262451;33;33828;-94
2022/03/10 11:18:24;;;;;;;2.35;1.95;;;;;;;6.39;26.69;100716.03;4269722;33;32704;-93
2022/03/10 11:21:05;;;;;;;2.75;1.90;;;;;;;6.36;27.36;100716.00;4269086;33;33652;-93
2022/03/10 11:23:43;;;;;;;3.60;2.15;;;;;;;6.54;27.27;100718.06;4264836;33;34161;-94
2022/03/10 11:26:14;;;;;;;3.28;1.92;;;;;;;6.83;27.08;100711.72;4263876;33;33442;-93
2022/03/10 11:28:45;;;;;;;2.42;2.10;;;;;;;7.38;26.37;100718.72;4260529;33;33286;-92
2022/03/10 11:31:14;;;;;;;2.17;1.90;;;;;;;7.87;25.69;100703.94;4273731;33;34458;-92
2022/03/10 11:33:44;;;;;;;4.57;2.20;;;;;;;7.37;25.82;100699.78;4250864;33;33342;-94
2022/03/10 11:36:21;;;;;;;1.98;1.77;;;;;;;6.89;26.90;100713.56;4267183;33;33352;-93
2022/03/10 11:38:52;;;;;;;3.12;2.20;;;;;;;6.82;25.81;100701.41;4266786;33;32990;-92
2022/03/10 11:41:24;;;;;;;3.05;2.05;;;;;;;7.53;24.86;100700.00;4268532;33;33756;-93
2022/03/10 11:43:59;;;;;;;2.10;1.70;;;;;;;7.16;25.58;100700.28;4273003;33;34016;-93
2022/03/10 11:46:29;;;;;;;2.70;1.95;;;;;;;6.81;25.66;100702.22;4273264;33;33763;-93
2022/03/10 11:49:16;;;;;;;4.53;2.22;;;;;;;7.05;25.87;100694.06;4252585;33;32500;-93
2022/03/10 11:51:48;;;;;;;1.80;1.70;;;;;;;7.19;27.01;100691.72;4269942;33;33728;-93
2022/03/10 11:54:22;;;;;;;12.93;2.50;;;;;;;6.70;27.64;100696.03;4270020;33;34220;-92
2022/03/10 11:57:03;;;;;;;7.35;1.90;;;;;;;6.84;27.06;100689.41;4263831;33;34490;-91
2022/03/10 11:59:50;;;;;;;3.53;2.42;;;;;;;6.90;27.63;100691.22;4259815;33;33680;-93
2022/03/10 12:02:39;;;;;;;2.12;1.58;;;;;;;6.86;26.77;100689.41;4273390;33;34022;-93
2022/03/10 12:05:09;;;;;;;3.03;2.15;;;;;;;7.11;26.58;100696.75;4273023;33;33712;-93
2022/03/10 12:07:42;;;;;;;3.28;1.90;;;;;;;6.62;27.32;100699.31;4258998;33;34590;-92
2022/03/10 12:10:13;;;;;;;2.45;1.67;;;;;;;7.10;26.80;100688.97;4255211;33;33101;-94
2022/03/10 12:12:43;;;;;;;2.80;1.90;;;;;;;6.68;26.91;100697.69;4259382;33;34134;-92
2022/03/10 12:15:51;;;;;;;2.90;2.30;;;;;;;7.43;26.42;100699.00;4254560;33;32468;-92
2022/03/10 12:18:26;;;;;;;2.83;1.95;;;;;;;7.80;25.77;100686.62;4268005;33;33390;-93
2022/03/10 12:20:56;;;;;;;3.28;2.03;;;;;;;7.49;25.70;100678.44;4265940;33;33631;-93
2022/03/10 12:23:27;;;;;;;2.35;1.75;;;;;;;7.23;26.34;100684.06;4260744;33;33119;-92
2022/03/10 12:25:59;;;;;;;3.58;2.10;;;;;;;7.50;25.78;100674.16;4245827;33;32687;-94
2022/03/10 12:28:33;;;;;;;2.47;1.87;;;;;;;7.16;25.74;100674.47;4264566;33;35000;-92
2022/03/10 12:31:09;;;;;;;2.83;2.20;;;;;;;7.79;24.76;100680.59;4266346;33;32014;-93
2022/03/10 12:33:46;;;;;;;2.28;1.67;;;;;;;6.90;25.61;100683.47;4252444;33;33694;-93
2022/03/10 12:36:34;;;;;;;3.45;2.15;;;;;;;7.44;25.14;100682.66;4269287;33;33849;-94
2022/03/10 12:39:05;;;;;;;2.22;1.65;;;;;;;6.94;25.53;100680.13;4248717;33;32547;-93
2022/03/10 12:41:36;;;;;;;2.20;1.98;;;;;;;6.67;26.09;100677.91;4262877;33;33191;-94
2022/03/10 12:44:07;;;;;;;2.55;1.75;;;;;;;7.59;24.38;100672.56;4255675;33;32217;-94
2022/03/10 12:46:39;;;;;;;3.47;2.15;;;;;;;6.76;25.71;100678.94;4254366;33;33274;-92
2022/03/10 12:49:14;;;;;;;2.50;1.83;;;;;;;6.96;25.93;100678.41;4246352;33;33144;-93
2022/03/10 12:51:44;;;;;;;2.15;1.95;;;;;;;7.32;24.79;100682.47;4268802;33;33114;-92
2022/03/10 12:54:15;;;;;;;3.42;2.30;;;;;;;8.02;23.80;100691.25;4285708;33;32916;-93
2022/03/10 12:56:48;;;;;;;3.12;2.17;;;;;;;7.03;25.09;100681.16;4263213;33;33377;-93
2022/03/10 12:59:27;;;;;;;2.67;2.10;;;;;;;7.18;24.77;100683.12;4263040;33;34796;-93
2022/03/10 13:02:11;;;;;;;2.42;1.85;;;;;;;7.35;25.31;100685.97;4261542;33;33177;-93
2022/03/10 13:04:48;;;;;;;2.95;2.05;;;;;;;7.84;24.74;100684.09;4267500;33;33475;-93
2022/03/10 13:07:17;;;;;;;2.75;1.80;;;;;;;8.31;24.32;100685.56;4266209;33;34576;-93
2022/03/10 13:09:52;;;;;;;2.12;1.75;;;;;;;8.69;23.49;100685.16;4264351;33;35022;-92
2022/03/10 13:12:26;;;;;;;2.65;1.60;;;;;;;8.84;23.41;100682.72;4264733;33;33751;-95
2022/03/10 13:14:54;;;;;;;2.65;1.98;;;;;;;9.03;22.33;100677.72;4261643;33;32901;-92
2022/03/10 13:17:36;;;;;;;2.62;2.00;;;;;;;9.34;22.36;100677.13;4261459;33;33230;-93
2022/03/10 13:20:16;;;;;;;2.22;1.70;;;;;;;8.47;23.31;100686.66;4261876;33;34493;-94